sensor_id;sensor_type;location;lat;lon;timestamp;P1;durP1;ratioP1;P2;durP2;ratioP2
65855;SDS011;52631;42.208;24.656;2022-11-15T00:01:06;25.67;;;13.18;;
65855;SDS011;52631;42.208;24.656;2022-11-15T00:03:33;28.10;;;14.30;;
65855;SDS011;52631;42.208;24.656;2022-11-15T00:06:02;31.10;;;16.38;;
65855;SDS011;52631;42.208;24.656;2022-11-15T00:08:32;29.20;;;15.05;;
65855;SDS011;52631;42.208;24.656;2022-11-15T00:10:58;29.90;;;14.45;;
65855;SDS011;52631;42.208;24.656;2022-11-15T00:13:24;29.48;;;14.18;;
65855;SDS011;52631;42.208;24.656;2022-11-15T00:15:50;29.98;;;16.10;;
65855;SDS011;52631;42.208;24.656;2022-11-15T00:18:16;27.88;;;14.23;;
65855;SDS011;52631;42.208;24.656;2022-11-15T00:20:42;27.23;;;14.52;;
65855;SDS011;52631;42.208;24.656;2022-11-15T00:23:08;27.52;;;13.43;;
65855;SDS011;52631;42.208;24.656;2022-11-15T00:25:33;28.60;;;14.15;;
65855;SDS011;52631;42.208;24.656;2022-11-15T00:27:59;30.08;;;15.05;;
65855;SDS011;52631;42.208;24.656;2022-11-15T00:30:25;31.23;;;15.43;;
65855;SDS011;52631;42.208;24.656;2022-11-15T00:32:51;32.60;;;15.40;;
65855;SDS011;52631;42.208;24.656;2022-11-15T00:35:17;29.70;;;14.70;;
65855;SDS011;52631;42.208;24.656;2022-11-15T00:37:43;28.00;;;13.30;;
65855;SDS011;52631;42.208;24.656;2022-11-15T00:40:09;30.08;;;14.38;;
65855;SDS011;52631;42.208;24.656;2022-11-15T00:42:37;31.42;;;15.43;;
65855;SDS011;52631;42.208;24.656;2022-11-15T00:45:03;30.25;;;14.85;;
65855;SDS011;52631;42.208;24.656;2022-11-15T00:47:29;29.02;;;14.25;;
65855;SDS011;52631;42.208;24.656;2022-11-15T00:49:54;26.52;;;13.38;;
65855;SDS011;52631;42.208;24.656;2022-11-15T00:52:19;27.38;;;14.32;;
65855;SDS011;52631;42.208;24.656;2022-11-15T00:54:45;32.00;;;15.57;;
65855;SDS011;52631;42.208;24.656;2022-11-15T00:57:10;26.77;;;13.50;;
65855;SDS011;52631;42.208;24.656;2022-11-15T00:59:36;32.03;;;14.20;;
65855;SDS011;52631;42.208;24.656;2022-11-15T01:02:01;26.90;;;14.05;;
65855;SDS011;52631;42.208;24.656;2022-11-15T01:04:27;30.55;;;14.88;;
65855;SDS011;52631;42.208;24.656;2022-11-15T01:06:52;33.90;;;16.80;;
65855;SDS011;52631;42.208;24.656;2022-11-15T01:09:18;30.95;;;15.88;;
65855;SDS011;52631;42.208;24.656;2022-11-15T01:11:44;29.92;;;15.43;;
65855;SDS011;52631;42.208;24.656;2022-11-15T01:14:09;35.20;;;18.13;;
65855;SDS011;52631;42.208;24.656;2022-11-15T01:16:35;31.58;;;16.13;;
65855;SDS011;52631;42.208;24.656;2022-11-15T01:19:00;35.80;;;18.42;;
65855;SDS011;52631;42.208;24.656;2022-11-15T01:21:25;35.25;;;17.58;;
65855;SDS011;52631;42.208;24.656;2022-11-15T01:23:55;41.88;;;19.95;;
65855;SDS011;52631;42.208;24.656;2022-11-15T01:26:20;36.92;;;17.80;;
65855;SDS011;52631;42.208;24.656;2022-11-15T01:28:46;36.20;;;18.70;;
65855;SDS011;52631;42.208;24.656;2022-11-15T01:31:13;36.13;;;17.80;;
65855;SDS011;52631;42.208;24.656;2022-11-15T01:33:40;38.72;;;19.35;;
65855;SDS011;52631;42.208;24.656;2022-11-15T01:36:23;39.63;;;19.13;;
65855;SDS011;52631;42.208;24.656;2022-11-15T01:38:53;43.22;;;20.83;;
65855;SDS011;52631;42.208;24.656;2022-11-15T01:41:21;44.28;;;22.45;;
65855;SDS011;52631;42.208;24.656;2022-11-15T01:47:09;45.00;;;20.83;;
65855;SDS011;52631;42.208;24.656;2022-11-15T01:49:39;42.45;;;19.10;;
65855;SDS011;52631;42.208;24.656;2022-11-15T01:52:07;36.20;;;19.10;;
65855;SDS011;52631;42.208;24.656;2022-11-15T01:54:35;34.50;;;18.67;;
65855;SDS011;52631;42.208;24.656;2022-11-15T01:57:07;38.70;;;19.52;;
65855;SDS011;52631;42.208;24.656;2022-11-15T01:59:34;38.50;;;19.15;;
65855;SDS011;52631;42.208;24.656;2022-11-15T02:02:02;41.90;;;20.17;;
65855;SDS011;52631;42.208;24.656;2022-11-15T02:04:28;42.80;;;19.38;;
65855;SDS011;52631;42.208;24.656;2022-11-15T02:06:56;38.08;;;19.67;;
65855;SDS011;52631;42.208;24.656;2022-11-15T02:09:22;38.17;;;20.70;;
65855;SDS011;52631;42.208;24.656;2022-11-15T02:11:48;36.40;;;17.55;;
65855;SDS011;52631;42.208;24.656;2022-11-15T02:14:15;39.70;;;20.27;;
65855;SDS011;52631;42.208;24.656;2022-11-15T02:36:13;32.88;;;16.17;;
65855;SDS011;52631;42.208;24.656;2022-11-15T02:44:21;34.75;;;19.85;;
65855;SDS011;52631;42.208;24.656;2022-11-15T02:49:38;43.20;;;24.58;;
65855;SDS011;52631;42.208;24.656;2022-11-15T02:52:06;33.47;;;18.00;;
65855;SDS011;52631;42.208;24.656;2022-11-15T02:54:32;33.42;;;16.35;;
65855;SDS011;52631;42.208;24.656;2022-11-15T02:57:07;33.72;;;18.55;;
65855;SDS011;52631;42.208;24.656;2022-11-15T02:59:41;32.50;;;17.48;;
65855;SDS011;52631;42.208;24.656;2022-11-15T03:13:16;32.03;;;17.98;;
65855;SDS011;52631;42.208;24.656;2022-11-15T03:15:52;33.45;;;18.15;;
65855;SDS011;52631;42.208;24.656;2022-11-15T03:18:28;34.10;;;18.25;;
65855;SDS011;52631;42.208;24.656;2022-11-15T03:20:58;35.30;;;18.08;;
65855;SDS011;52631;42.208;24.656;2022-11-15T03:23:25;30.88;;;15.40;;
65855;SDS011;52631;42.208;24.656;2022-11-15T03:25:51;33.47;;;17.45;;
65855;SDS011;52631;42.208;24.656;2022-11-15T03:28:22;33.35;;;18.15;;
65855;SDS011;52631;42.208;24.656;2022-11-15T03:30:50;33.83;;;16.52;;
65855;SDS011;52631;42.208;24.656;2022-11-15T03:33:17;31.70;;;15.85;;
65855;SDS011;52631;42.208;24.656;2022-11-15T03:35:44;36.10;;;16.17;;
65855;SDS011;52631;42.208;24.656;2022-11-15T03:38:23;36.55;;;17.85;;
65855;SDS011;52631;42.208;24.656;2022-11-15T03:41:09;37.75;;;18.08;;
65855;SDS011;52631;42.208;24.656;2022-11-15T03:43:53;25.73;;;11.82;;
65855;SDS011;52631;42.208;24.656;2022-11-15T03:46:27;33.42;;;16.02;;
65855;SDS011;52631;42.208;24.656;2022-11-15T03:49:29;27.08;;;15.27;;
65855;SDS011;52631;42.208;24.656;2022-11-15T03:51:49;32.50;;;15.10;;
65855;SDS011;52631;42.208;24.656;2022-11-15T03:54:16;33.55;;;16.23;;
65855;SDS011;52631;42.208;24.656;2022-11-15T03:56:41;31.33;;;14.93;;
65855;SDS011;52631;42.208;24.656;2022-11-15T03:59:07;34.33;;;16.60;;
65855;SDS011;52631;42.208;24.656;2022-11-15T04:01:32;34.20;;;17.17;;
65855;SDS011;52631;42.208;24.656;2022-11-15T04:03:58;34.05;;;17.13;;
65855;SDS011;52631;42.208;24.656;2022-11-15T04:06:23;35.33;;;16.23;;
65855;SDS011;52631;42.208;24.656;2022-11-15T04:08:49;34.17;;;17.08;;
65855;SDS011;52631;42.208;24.656;2022-11-15T04:11:14;37.28;;;17.02;;
65855;SDS011;52631;42.208;24.656;2022-11-15T04:13:39;33.38;;;16.33;;
65855;SDS011;52631;42.208;24.656;2022-11-15T04:16:05;36.97;;;17.98;;
65855;SDS011;52631;42.208;24.656;2022-11-15T04:18:31;37.95;;;17.25;;
65855;SDS011;52631;42.208;24.656;2022-11-15T04:20:56;30.58;;;16.80;;
65855;SDS011;52631;42.208;24.656;2022-11-15T04:23:40;32.55;;;17.02;;
65855;SDS011;52631;42.208;24.656;2022-11-15T04:26:24;32.70;;;18.15;;
65855;SDS011;52631;42.208;24.656;2022-11-15T04:28:49;36.72;;;19.40;;
65855;SDS011;52631;42.208;24.656;2022-11-15T04:31:33;35.85;;;18.05;;
65855;SDS011;52631;42.208;24.656;2022-11-15T04:33:59;34.30;;;18.30;;
65855;SDS011;52631;42.208;24.656;2022-11-15T04:36:25;34.80;;;17.10;;
65855;SDS011;52631;42.208;24.656;2022-11-15T04:39:08;39.70;;;18.13;;
65855;SDS011;52631;42.208;24.656;2022-11-15T04:41:34;41.03;;;18.15;;
65855;SDS011;52631;42.208;24.656;2022-11-15T04:43:59;35.67;;;16.77;;
65855;SDS011;52631;42.208;24.656;2022-11-15T04:46:25;35.70;;;18.77;;
65855;SDS011;52631;42.208;24.656;2022-11-15T04:48:51;34.90;;;17.33;;
65855;SDS011;52631;42.208;24.656;2022-11-15T04:51:17;36.20;;;17.10;;
65855;SDS011;52631;42.208;24.656;2022-11-15T04:53:42;36.10;;;16.63;;
65855;SDS011;52631;42.208;24.656;2022-11-15T04:56:08;32.55;;;17.10;;
65855;SDS011;52631;42.208;24.656;2022-11-15T04:58:33;33.50;;;18.20;;
65855;SDS011;52631;42.208;24.656;2022-11-15T05:01:06;35.47;;;16.65;;
65855;SDS011;52631;42.208;24.656;2022-11-15T05:03:35;34.15;;;16.20;;
65855;SDS011;52631;42.208;24.656;2022-11-15T05:06:19;35.65;;;16.50;;
65855;SDS011;52631;42.208;24.656;2022-11-15T05:08:45;33.80;;;15.43;;
65855;SDS011;52631;42.208;24.656;2022-11-15T05:11:10;36.92;;;16.13;;
65855;SDS011;52631;42.208;24.656;2022-11-15T05:13:35;30.55;;;15.80;;
65855;SDS011;52631;42.208;24.656;2022-11-15T05:16:01;30.33;;;15.40;;
65855;SDS011;52631;42.208;24.656;2022-11-15T05:18:27;32.53;;;15.98;;
65855;SDS011;52631;42.208;24.656;2022-11-15T05:20:52;32.30;;;16.20;;
65855;SDS011;52631;42.208;24.656;2022-11-15T05:23:17;38.55;;;17.48;;
65855;SDS011;52631;42.208;24.656;2022-11-15T05:25:43;37.45;;;17.63;;
65855;SDS011;52631;42.208;24.656;2022-11-15T05:28:08;35.28;;;17.15;;
65855;SDS011;52631;42.208;24.656;2022-11-15T05:30:34;38.45;;;18.52;;
65855;SDS011;52631;42.208;24.656;2022-11-15T05:32:59;30.67;;;16.65;;
65855;SDS011;52631;42.208;24.656;2022-11-15T05:35:30;35.17;;;17.23;;
65855;SDS011;52631;42.208;24.656;2022-11-15T05:37:57;32.30;;;17.15;;
65855;SDS011;52631;42.208;24.656;2022-11-15T05:40:23;37.00;;;17.23;;
65855;SDS011;52631;42.208;24.656;2022-11-15T05:42:49;42.42;;;20.48;;
65855;SDS011;52631;42.208;24.656;2022-11-15T05:45:14;33.60;;;17.35;;
65855;SDS011;52631;42.208;24.656;2022-11-15T05:47:40;39.30;;;18.23;;
65855;SDS011;52631;42.208;24.656;2022-11-15T05:50:06;37.90;;;17.65;;
65855;SDS011;52631;42.208;24.656;2022-11-15T05:52:33;38.63;;;19.25;;
65855;SDS011;52631;42.208;24.656;2022-11-15T05:55:00;46.97;;;19.75;;
65855;SDS011;52631;42.208;24.656;2022-11-15T05:57:26;45.00;;;20.85;;
65855;SDS011;52631;42.208;24.656;2022-11-15T05:59:52;44.55;;;20.95;;
65855;SDS011;52631;42.208;24.656;2022-11-15T06:02:18;41.65;;;20.48;;
65855;SDS011;52631;42.208;24.656;2022-11-15T06:04:44;44.17;;;21.27;;
65855;SDS011;52631;42.208;24.656;2022-11-15T06:07:09;42.28;;;19.77;;
65855;SDS011;52631;42.208;24.656;2022-11-15T06:09:35;47.65;;;22.15;;
65855;SDS011;52631;42.208;24.656;2022-11-15T06:12:00;43.92;;;21.83;;
65855;SDS011;52631;42.208;24.656;2022-11-15T06:14:26;44.83;;;21.55;;
65855;SDS011;52631;42.208;24.656;2022-11-15T06:16:51;80.68;;;41.92;;
65855;SDS011;52631;42.208;24.656;2022-11-15T06:19:16;44.40;;;24.67;;
65855;SDS011;52631;42.208;24.656;2022-11-15T06:21:42;44.80;;;19.42;;
65855;SDS011;52631;42.208;24.656;2022-11-15T06:24:07;45.58;;;20.23;;
65855;SDS011;52631;42.208;24.656;2022-11-15T06:26:33;42.55;;;19.83;;
65855;SDS011;52631;42.208;24.656;2022-11-15T06:28:58;42.03;;;20.27;;
65855;SDS011;52631;42.208;24.656;2022-11-15T06:31:24;41.55;;;20.02;;
65855;SDS011;52631;42.208;24.656;2022-11-15T06:33:49;41.30;;;20.42;;
65855;SDS011;52631;42.208;24.656;2022-11-15T06:36:15;43.92;;;20.02;;
65855;SDS011;52631;42.208;24.656;2022-11-15T06:38:42;40.92;;;20.15;;
65855;SDS011;52631;42.208;24.656;2022-11-15T06:41:08;44.72;;;20.52;;
65855;SDS011;52631;42.208;24.656;2022-11-15T06:43:35;37.63;;;18.88;;
65855;SDS011;52631;42.208;24.656;2022-11-15T06:46:02;38.15;;;19.77;;
65855;SDS011;52631;42.208;24.656;2022-11-15T06:48:28;44.25;;;20.02;;
65855;SDS011;52631;42.208;24.656;2022-11-15T06:50:55;40.63;;;19.73;;
65855;SDS011;52631;42.208;24.656;2022-11-15T06:53:21;41.90;;;20.67;;
65855;SDS011;52631;42.208;24.656;2022-11-15T06:55:46;70.43;;;33.05;;
65855;SDS011;52631;42.208;24.656;2022-11-15T06:58:12;57.42;;;29.30;;
65855;SDS011;52631;42.208;24.656;2022-11-15T07:00:38;42.80;;;24.90;;
65855;SDS011;52631;42.208;24.656;2022-11-15T07:03:04;40.08;;;20.73;;
65855;SDS011;52631;42.208;24.656;2022-11-15T07:05:29;39.90;;;19.23;;
65855;SDS011;52631;42.208;24.656;2022-11-15T07:07:55;63.17;;;32.28;;
65855;SDS011;52631;42.208;24.656;2022-11-15T07:10:22;53.35;;;27.27;;
65855;SDS011;52631;42.208;24.656;2022-11-15T07:12:49;36.70;;;19.20;;
65855;SDS011;52631;42.208;24.656;2022-11-15T07:15:16;34.80;;;18.30;;
65855;SDS011;52631;42.208;24.656;2022-11-15T07:17:42;32.95;;;17.75;;
65855;SDS011;52631;42.208;24.656;2022-11-15T07:20:08;36.70;;;17.35;;
65855;SDS011;52631;42.208;24.656;2022-11-15T07:22:33;35.42;;;18.13;;
65855;SDS011;52631;42.208;24.656;2022-11-15T07:24:59;35.10;;;19.13;;
65855;SDS011;52631;42.208;24.656;2022-11-15T07:27:24;34.00;;;17.13;;
65855;SDS011;52631;42.208;24.656;2022-11-15T07:29:50;29.83;;;15.50;;
65855;SDS011;52631;42.208;24.656;2022-11-15T07:32:15;32.45;;;16.48;;
65855;SDS011;52631;42.208;24.656;2022-11-15T07:34:41;29.30;;;16.10;;
65855;SDS011;52631;42.208;24.656;2022-11-15T07:37:06;33.53;;;15.90;;
65855;SDS011;52631;42.208;24.656;2022-11-15T07:39:31;28.52;;;15.18;;
65855;SDS011;52631;42.208;24.656;2022-11-15T07:41:57;30.17;;;15.23;;
65855;SDS011;52631;42.208;24.656;2022-11-15T07:44:41;29.17;;;14.25;;
65855;SDS011;52631;42.208;24.656;2022-11-15T07:47:06;28.98;;;15.65;;
65855;SDS011;52631;42.208;24.656;2022-11-15T07:49:32;27.98;;;16.00;;
65855;SDS011;52631;42.208;24.656;2022-11-15T07:51:57;30.90;;;16.27;;
65855;SDS011;52631;42.208;24.656;2022-11-15T07:54:23;28.73;;;16.98;;
65855;SDS011;52631;42.208;24.656;2022-11-15T07:56:48;33.83;;;16.77;;
65855;SDS011;52631;42.208;24.656;2022-11-15T07:59:13;32.45;;;16.30;;
65855;SDS011;52631;42.208;24.656;2022-11-15T08:01:39;32.53;;;16.85;;
65855;SDS011;52631;42.208;24.656;2022-11-15T08:04:05;37.25;;;18.55;;
65855;SDS011;52631;42.208;24.656;2022-11-15T08:06:30;33.00;;;16.92;;
65855;SDS011;52631;42.208;24.656;2022-11-15T08:08:56;35.72;;;18.17;;
65855;SDS011;52631;42.208;24.656;2022-11-15T08:11:21;38.92;;;17.73;;
65855;SDS011;52631;42.208;24.656;2022-11-15T08:13:46;34.47;;;17.45;;
65855;SDS011;52631;42.208;24.656;2022-11-15T08:16:12;33.95;;;17.48;;
65855;SDS011;52631;42.208;24.656;2022-11-15T08:18:37;32.83;;;16.40;;
65855;SDS011;52631;42.208;24.656;2022-11-15T08:21:03;34.00;;;17.50;;
65855;SDS011;52631;42.208;24.656;2022-11-15T08:23:29;33.25;;;18.15;;
65855;SDS011;52631;42.208;24.656;2022-11-15T08:26:04;29.58;;;16.73;;
65855;SDS011;52631;42.208;24.656;2022-11-15T08:28:30;32.47;;;16.92;;
65855;SDS011;52631;42.208;24.656;2022-11-15T08:30:56;30.60;;;16.48;;
65855;SDS011;52631;42.208;24.656;2022-11-15T08:33:22;35.00;;;17.67;;
65855;SDS011;52631;42.208;24.656;2022-11-15T08:35:47;29.65;;;16.98;;
65855;SDS011;52631;42.208;24.656;2022-11-15T08:38:13;31.83;;;17.80;;
65855;SDS011;52631;42.208;24.656;2022-11-15T08:40:39;31.05;;;17.65;;
65855;SDS011;52631;42.208;24.656;2022-11-15T08:43:04;31.58;;;16.73;;
65855;SDS011;52631;42.208;24.656;2022-11-15T08:45:30;27.60;;;15.10;;
65855;SDS011;52631;42.208;24.656;2022-11-15T08:47:56;29.73;;;16.45;;
65855;SDS011;52631;42.208;24.656;2022-11-15T08:50:21;28.27;;;15.75;;
65855;SDS011;52631;42.208;24.656;2022-11-15T08:52:47;35.15;;;17.15;;
65855;SDS011;52631;42.208;24.656;2022-11-15T08:55:13;31.48;;;16.70;;
65855;SDS011;52631;42.208;24.656;2022-11-15T08:57:39;34.15;;;17.73;;
65855;SDS011;52631;42.208;24.656;2022-11-15T09:00:04;28.25;;;15.68;;
65855;SDS011;52631;42.208;24.656;2022-11-15T09:02:30;46.58;;;24.90;;
65855;SDS011;52631;42.208;24.656;2022-11-15T09:04:56;27.30;;;15.57;;
65855;SDS011;52631;42.208;24.656;2022-11-15T09:07:21;27.77;;;15.93;;
65855;SDS011;52631;42.208;24.656;2022-11-15T09:09:47;27.10;;;16.50;;
65855;SDS011;52631;42.208;24.656;2022-11-15T09:12:12;33.95;;;18.55;;
65855;SDS011;52631;42.208;24.656;2022-11-15T09:14:38;34.90;;;20.85;;
65855;SDS011;52631;42.208;24.656;2022-11-15T09:17:03;31.45;;;16.77;;
65855;SDS011;52631;42.208;24.656;2022-11-15T09:19:33;30.27;;;16.80;;
65855;SDS011;52631;42.208;24.656;2022-11-15T09:21:58;29.88;;;16.77;;
65855;SDS011;52631;42.208;24.656;2022-11-15T09:24:24;30.33;;;17.25;;
65855;SDS011;52631;42.208;24.656;2022-11-15T09:26:50;28.80;;;17.85;;
65855;SDS011;52631;42.208;24.656;2022-11-15T09:29:16;30.20;;;17.38;;
65855;SDS011;52631;42.208;24.656;2022-11-15T09:31:42;35.00;;;20.20;;
65855;SDS011;52631;42.208;24.656;2022-11-15T09:34:08;33.55;;;20.55;;
65855;SDS011;52631;42.208;24.656;2022-11-15T09:36:34;30.10;;;19.60;;
65855;SDS011;52631;42.208;24.656;2022-11-15T09:38:59;39.45;;;23.33;;
65855;SDS011;52631;42.208;24.656;2022-11-15T09:41:28;35.00;;;19.63;;
65855;SDS011;52631;42.208;24.656;2022-11-15T09:49:30;32.40;;;19.25;;
65855;SDS011;52631;42.208;24.656;2022-11-15T09:51:56;33.63;;;19.27;;
65855;SDS011;52631;42.208;24.656;2022-11-15T09:54:30;30.00;;;18.02;;
65855;SDS011;52631;42.208;24.656;2022-11-15T09:56:56;34.95;;;19.00;;
65855;SDS011;52631;42.208;24.656;2022-11-15T09:59:47;32.80;;;18.58;;
65855;SDS011;52631;42.208;24.656;2022-11-15T10:05:18;33.17;;;19.55;;
65855;SDS011;52631;42.208;24.656;2022-11-15T10:10:28;32.13;;;18.42;;
65855;SDS011;52631;42.208;24.656;2022-11-15T10:12:59;28.65;;;16.88;;
65855;SDS011;52631;42.208;24.656;2022-11-15T10:15:25;29.58;;;16.80;;
65855;SDS011;52631;42.208;24.656;2022-11-15T10:20:48;32.17;;;17.88;;
65855;SDS011;52631;42.208;24.656;2022-11-15T10:23:16;30.65;;;17.58;;
65855;SDS011;52631;42.208;24.656;2022-11-15T10:25:43;29.05;;;16.83;;
65855;SDS011;52631;42.208;24.656;2022-11-15T10:31:20;28.83;;;17.40;;
65855;SDS011;52631;42.208;24.656;2022-11-15T10:33:37;41.55;;;17.88;;
65855;SDS011;52631;42.208;24.656;2022-11-15T10:41:15;27.02;;;16.00;;
65855;SDS011;52631;42.208;24.656;2022-11-15T10:46:31;26.83;;;15.75;;
65855;SDS011;52631;42.208;24.656;2022-11-15T10:49:11;25.90;;;16.30;;
65855;SDS011;52631;42.208;24.656;2022-11-15T10:51:46;26.63;;;15.52;;
65855;SDS011;52631;42.208;24.656;2022-11-15T10:56:57;26.80;;;16.67;;
65855;SDS011;52631;42.208;24.656;2022-11-15T10:59:26;31.60;;;17.88;;
65855;SDS011;52631;42.208;24.656;2022-11-15T11:01:53;26.27;;;16.10;;
65855;SDS011;52631;42.208;24.656;2022-11-15T11:04:19;24.42;;;15.90;;
65855;SDS011;52631;42.208;24.656;2022-11-15T11:06:48;26.00;;;14.68;;
65855;SDS011;52631;42.208;24.656;2022-11-15T11:09:39;22.67;;;14.57;;
65855;SDS011;52631;42.208;24.656;2022-11-15T11:12:09;19.98;;;12.23;;
65855;SDS011;52631;42.208;24.656;2022-11-15T11:14:36;21.23;;;12.23;;
65855;SDS011;52631;42.208;24.656;2022-11-15T11:17:12;25.40;;;15.35;;
65855;SDS011;52631;42.208;24.656;2022-11-15T11:19:48;22.60;;;13.88;;
65855;SDS011;52631;42.208;24.656;2022-11-15T11:30:08;27.00;;;15.52;;
65855;SDS011;52631;42.208;24.656;2022-11-15T11:35:20;28.50;;;16.75;;
65855;SDS011;52631;42.208;24.656;2022-11-15T11:40:44;26.10;;;14.50;;
65855;SDS011;52631;42.208;24.656;2022-11-15T11:48:55;27.67;;;16.25;;
65855;SDS011;52631;42.208;24.656;2022-11-15T11:51:25;32.08;;;20.23;;
65855;SDS011;52631;42.208;24.656;2022-11-15T11:54:06;26.00;;;15.25;;
65855;SDS011;52631;42.208;24.656;2022-11-15T11:56:36;24.75;;;14.23;;
65855;SDS011;52631;42.208;24.656;2022-11-15T12:01:43;24.45;;;13.82;;
65855;SDS011;52631;42.208;24.656;2022-11-15T12:04:18;22.10;;;14.07;;
65855;SDS011;52631;42.208;24.656;2022-11-15T12:12:38;25.20;;;16.10;;
65855;SDS011;52631;42.208;24.656;2022-11-15T12:17:35;22.10;;;12.98;;
65855;SDS011;52631;42.208;24.656;2022-11-15T12:20:02;21.65;;;12.88;;
65855;SDS011;52631;42.208;24.656;2022-11-15T12:25:14;22.52;;;13.82;;
65855;SDS011;52631;42.208;24.656;2022-11-15T12:27:49;27.38;;;16.90;;
65855;SDS011;52631;42.208;24.656;2022-11-15T12:30:19;28.00;;;16.60;;
65855;SDS011;52631;42.208;24.656;2022-11-15T12:32:53;26.10;;;14.57;;
65855;SDS011;52631;42.208;24.656;2022-11-15T12:35:27;32.95;;;18.50;;
65855;SDS011;52631;42.208;24.656;2022-11-15T12:40:22;29.63;;;15.10;;
65855;SDS011;52631;42.208;24.656;2022-11-15T12:45:27;26.15;;;15.63;;
65855;SDS011;52631;42.208;24.656;2022-11-15T12:47:53;28.50;;;18.73;;
65855;SDS011;52631;42.208;24.656;2022-11-15T13:04:24;26.77;;;15.70;;
65855;SDS011;52631;42.208;24.656;2022-11-15T13:06:55;29.88;;;16.85;;
65855;SDS011;52631;42.208;24.656;2022-11-15T13:12:01;29.02;;;16.40;;
65855;SDS011;52631;42.208;24.656;2022-11-15T13:14:45;28.55;;;16.45;;
65855;SDS011;52631;42.208;24.656;2022-11-15T13:19:48;29.30;;;16.58;;
65855;SDS011;52631;42.208;24.656;2022-11-15T13:22:18;28.00;;;15.65;;
65855;SDS011;52631;42.208;24.656;2022-11-15T13:25:01;25.95;;;16.27;;
65855;SDS011;52631;42.208;24.656;2022-11-15T13:27:27;27.70;;;16.58;;
65855;SDS011;52631;42.208;24.656;2022-11-15T13:29:53;24.92;;;16.45;;
65855;SDS011;52631;42.208;24.656;2022-11-15T13:32:19;27.63;;;16.73;;
65855;SDS011;52631;42.208;24.656;2022-11-15T13:34:45;30.73;;;17.60;;
65855;SDS011;52631;42.208;24.656;2022-11-15T13:39:46;30.85;;;18.15;;
65855;SDS011;52631;42.208;24.656;2022-11-15T13:42:14;31.50;;;18.60;;
65855;SDS011;52631;42.208;24.656;2022-11-15T13:44:40;29.42;;;18.05;;
65855;SDS011;52631;42.208;24.656;2022-11-15T13:47:20;31.63;;;18.17;;
65855;SDS011;52631;42.208;24.656;2022-11-15T13:49:45;33.30;;;21.77;;
65855;SDS011;52631;42.208;24.656;2022-11-15T13:52:12;32.28;;;18.77;;
65855;SDS011;52631;42.208;24.656;2022-11-15T13:54:43;31.13;;;18.30;;
65855;SDS011;52631;42.208;24.656;2022-11-15T13:57:24;32.60;;;19.30;;
65855;SDS011;52631;42.208;24.656;2022-11-15T13:59:53;34.60;;;19.13;;
65855;SDS011;52631;42.208;24.656;2022-11-15T14:02:21;32.97;;;18.67;;
65855;SDS011;52631;42.208;24.656;2022-11-15T14:04:53;34.92;;;18.00;;
65855;SDS011;52631;42.208;24.656;2022-11-15T14:07:21;32.85;;;17.67;;
65855;SDS011;52631;42.208;24.656;2022-11-15T14:09:48;35.28;;;18.63;;
65855;SDS011;52631;42.208;24.656;2022-11-15T14:12:28;33.17;;;18.33;;
65855;SDS011;52631;42.208;24.656;2022-11-15T14:14:58;35.38;;;19.05;;
65855;SDS011;52631;42.208;24.656;2022-11-15T14:19:54;34.40;;;19.63;;
65855;SDS011;52631;42.208;24.656;2022-11-15T14:27:40;34.47;;;19.55;;
65855;SDS011;52631;42.208;24.656;2022-11-15T14:30:12;38.03;;;19.50;;
65855;SDS011;52631;42.208;24.656;2022-11-15T14:32:48;34.35;;;18.95;;
65855;SDS011;52631;42.208;24.656;2022-11-15T14:35:17;37.88;;;20.17;;
65855;SDS011;52631;42.208;24.656;2022-11-15T14:37:44;37.50;;;20.05;;
65855;SDS011;52631;42.208;24.656;2022-11-15T14:40:12;37.55;;;20.00;;
65855;SDS011;52631;42.208;24.656;2022-11-15T14:42:39;39.17;;;20.65;;
65855;SDS011;52631;42.208;24.656;2022-11-15T14:45:10;37.88;;;21.67;;
65855;SDS011;52631;42.208;24.656;2022-11-15T14:47:46;34.00;;;18.58;;
65855;SDS011;52631;42.208;24.656;2022-11-15T14:50:13;35.20;;;20.05;;
65855;SDS011;52631;42.208;24.656;2022-11-15T14:52:39;35.10;;;19.70;;
65855;SDS011;52631;42.208;24.656;2022-11-15T14:55:11;43.30;;;22.88;;
65855;SDS011;52631;42.208;24.656;2022-11-15T14:57:38;43.45;;;22.63;;
65855;SDS011;52631;42.208;24.656;2022-11-15T15:00:04;43.38;;;24.05;;
65855;SDS011;52631;42.208;24.656;2022-11-15T15:02:30;46.30;;;23.30;;
65855;SDS011;52631;42.208;24.656;2022-11-15T15:04:55;46.38;;;27.23;;
65855;SDS011;52631;42.208;24.656;2022-11-15T15:07:22;60.70;;;34.53;;
65855;SDS011;52631;42.208;24.656;2022-11-15T15:09:48;56.90;;;33.95;;
65855;SDS011;52631;42.208;24.656;2022-11-15T15:12:14;58.28;;;34.83;;
65855;SDS011;52631;42.208;24.656;2022-11-15T15:14:42;49.25;;;26.30;;
65855;SDS011;52631;42.208;24.656;2022-11-15T15:17:07;51.65;;;26.50;;
65855;SDS011;52631;42.208;24.656;2022-11-15T15:19:33;52.05;;;24.88;;
65855;SDS011;52631;42.208;24.656;2022-11-15T15:21:58;49.38;;;24.23;;
65855;SDS011;52631;42.208;24.656;2022-11-15T15:24:24;49.35;;;24.92;;
65855;SDS011;52631;42.208;24.656;2022-11-15T15:26:50;53.70;;;25.88;;
65855;SDS011;52631;42.208;24.656;2022-11-15T15:29:15;50.58;;;25.45;;
65855;SDS011;52631;42.208;24.656;2022-11-15T15:31:41;52.33;;;26.42;;
65855;SDS011;52631;42.208;24.656;2022-11-15T15:34:07;46.35;;;24.73;;
65855;SDS011;52631;42.208;24.656;2022-11-15T15:36:33;49.88;;;24.23;;
65855;SDS011;52631;42.208;24.656;2022-11-15T15:38:58;47.55;;;24.85;;
65855;SDS011;52631;42.208;24.656;2022-11-15T15:41:24;50.63;;;25.20;;
65855;SDS011;52631;42.208;24.656;2022-11-15T15:43:49;47.78;;;24.58;;
65855;SDS011;52631;42.208;24.656;2022-11-15T15:46:15;51.15;;;25.70;;
65855;SDS011;52631;42.208;24.656;2022-11-15T15:48:42;52.10;;;23.50;;
65855;SDS011;52631;42.208;24.656;2022-11-15T15:51:08;53.13;;;26.45;;
65855;SDS011;52631;42.208;24.656;2022-11-15T15:53:33;47.47;;;25.90;;
65855;SDS011;52631;42.208;24.656;2022-11-15T15:55:59;50.08;;;25.42;;
65855;SDS011;52631;42.208;24.656;2022-11-15T15:58:25;51.67;;;25.60;;
65855;SDS011;52631;42.208;24.656;2022-11-15T16:00:50;50.33;;;25.13;;
65855;SDS011;52631;42.208;24.656;2022-11-15T16:03:16;52.22;;;27.17;;
65855;SDS011;52631;42.208;24.656;2022-11-15T16:05:42;56.28;;;27.23;;
65855;SDS011;52631;42.208;24.656;2022-11-15T16:08:28;57.38;;;28.15;;
65855;SDS011;52631;42.208;24.656;2022-11-15T16:10:54;58.00;;;27.50;;
65855;SDS011;52631;42.208;24.656;2022-11-15T16:13:20;55.05;;;27.30;;
65855;SDS011;52631;42.208;24.656;2022-11-15T16:15:45;53.25;;;26.58;;
65855;SDS011;52631;42.208;24.656;2022-11-15T16:18:16;52.05;;;25.75;;
65855;SDS011;52631;42.208;24.656;2022-11-15T16:23:12;50.80;;;25.73;;
65855;SDS011;52631;42.208;24.656;2022-11-15T16:25:57;58.25;;;27.15;;
65855;SDS011;52631;42.208;24.656;2022-11-15T16:28:23;57.72;;;26.58;;
65855;SDS011;52631;42.208;24.656;2022-11-15T16:30:58;51.75;;;26.35;;
65855;SDS011;52631;42.208;24.656;2022-11-15T16:33:28;50.17;;;25.25;;